Time;durP1;ratioP1;P1;durP2;ratioP2;P2;SDS_P1;SDS_P2;PMS_P1;PMS_P2;Temp;Humidity;BMP_temperature;BMP_pressure;BME280_temperature;BME280_humidity;BME280_pressure;Samples;Min_cycle;Max_cycle;Signal;HPM_P1;HPM_P2
2023/01/23 00:00:19;;;;;;;;;;;17.50;44.50;;;;;;5012176;28;20023;-54
2023/01/23 00:02:44;;;;;;;;;;;17.40;44.60;;;;;;5014024;28;19932;-54
2023/01/23 00:05:10;;;;;;;;;;;17.40;44.60;;;;;;5013926;28;19954;-54
2023/01/23 00:07:35;;;;;;;;;;;17.40;44.80;;;;;;5010813;28;19957;-54
2023/01/23 00:10:01;;;;;;;;;;;17.40;44.70;;;;;;5013730;28;19920;-54
2023/01/23 00:12:26;;;;;;;;;;;17.30;44.80;;;;;;5006021;28;19922;-54
2023/01/23 00:14:52;;;;;;;;;;;17.30;44.70;;;;;;5002054;28;19914;-54
2023/01/23 00:17:17;;;;;;;;;;;17.30;44.80;;;;;;5014059;28;20359;-53
2023/01/23 00:19:43;;;;;;;;;;;17.30;44.70;;;;;;5006908;28;19924;-54
2023/01/23 00:22:08;;;;;;;;;;;17.30;44.80;;;;;;5009289;28;19921;-54
2023/01/23 00:24:34;;;;;;;;;;;17.20;44.80;;;;;;5004313;28;19922;-54
2023/01/23 00:26:59;;;;;;;;;;;17.20;44.80;;;;;;5007416;28;19928;-54
2023/01/23 00:29:24;;;;;;;;;;;17.20;44.80;;;;;;5026637;28;19928;-54
2023/01/23 00:31:50;;;;;;;;;;;17.20;44.80;;;;;;5008159;28;19951;-54
2023/01/23 00:34:15;;;;;;;;;;;17.20;44.80;;;;;;5011038;28;20436;-54
2023/01/23 00:36:41;;;;;;;;;;;17.20;44.80;;;;;;5012083;28;20366;-54
2023/01/23 00:39:08;;;;;;;;;;;17.20;44.90;;;;;;5009074;28;19913;-54
2023/01/23 00:41:34;;;;;;;;;;;17.20;44.80;;;;;;5013991;28;19913;-54
2023/01/23 00:43:59;;;;;;;;;;;17.10;45.00;;;;;;5008886;28;19924;-54
2023/01/23 00:46:25;;;;;;;;;;;17.10;44.90;;;;;;5011571;28;19925;-54
2023/01/23 00:48:50;;;;;;;;;;;17.10;44.90;;;;;;5011018;28;19956;-54
2023/01/23 00:51:16;;;;;;;;;;;17.10;45.00;;;;;;5011613;28;19921;-53
2023/01/23 00:53:41;;;;;;;;;;;17.10;44.90;;;;;;5008394;28;19917;-54
2023/01/23 00:56:07;;;;;;;;;;;17.10;45.00;;;;;;4997759;28;20376;-54
2023/01/23 00:58:32;;;;;;;;;;;17.10;45.00;;;;;;5013795;28;20285;-54
2023/01/23 01:00:57;;;;;;;;;;;17.00;44.80;;;;;;5013536;28;19913;-54
2023/01/23 01:03:24;;;;;;;;;;;17.00;44.90;;;;;;5009552;28;20417;-54
2023/01/23 01:05:49;;;;;;;;;;;17.00;45.10;;;;;;4996035;28;20002;-54
2023/01/23 01:08:15;;;;;;;;;;;17.00;44.90;;;;;;5006432;28;20024;-54
2023/01/23 01:10:40;;;;;;;;;;;17.00;44.80;;;;;;5001331;28;20374;-54
2023/01/23 01:13:05;;;;;;;;;;;17.00;44.90;;;;;;4998244;28;20425;-54
2023/01/23 01:15:31;;;;;;;;;;;17.00;45.00;;;;;;5001721;28;20305;-54
2023/01/23 01:17:57;;;;;;;;;;;17.00;45.10;;;;;;5003973;28;20428;-54
2023/01/23 01:20:24;;;;;;;;;;;17.00;45.00;;;;;;4999350;28;19936;-54
2023/01/23 01:22:50;;;;;;;;;;;16.90;45.10;;;;;;5013678;28;19924;-54
2023/01/23 01:25:15;;;;;;;;;;;16.90;45.20;;;;;;5008164;28;20361;-54
2023/01/23 01:27:41;;;;;;;;;;;16.90;45.10;;;;;;5011345;28;20294;-54
2023/01/23 01:30:07;;;;;;;;;;;16.90;45.10;;;;;;5008941;28;19914;-54
2023/01/23 01:32:35;;;;;;;;;;;16.90;45.30;;;;;;5006136;28;20013;-54
2023/01/23 01:35:00;;;;;;;;;;;16.80;45.20;;;;;;5003698;28;19925;-53
2023/01/23 01:37:26;;;;;;;;;;;16.80;45.20;;;;;;5013030;28;19913;-54
2023/01/23 01:39:51;;;;;;;;;;;16.80;45.20;;;;;;5008387;28;19957;-54
2023/01/23 01:42:17;;;;;;;;;;;16.80;45.20;;;;;;5011381;28;19917;-54
2023/01/23 01:44:50;;;;;;;;;;;16.80;45.20;;;;;;4998961;28;20328;-54
2023/01/23 01:47:16;;;;;;;;;;;16.80;45.20;;;;;;5007042;28;19965;-54
2023/01/23 01:49:41;;;;;;;;;;;16.70;45.30;;;;;;5000620;28;19956;-53
2023/01/23 01:52:09;;;;;;;;;;;16.70;45.20;;;;;;5012793;28;19917;-54
2023/01/23 01:54:39;;;;;;;;;;;16.70;45.10;;;;;;5009355;28;20328;-54
2023/01/23 01:57:24;;;;;;;;;;;16.70;45.20;;;;;;4994834;28;19928;-54
2023/01/23 01:59:53;;;;;;;;;;;16.70;45.40;;;;;;5005057;28;20000;-54
2023/01/23 02:02:23;;;;;;;;;;;16.70;45.40;;;;;;5011700;28;20352;-54
2023/01/23 02:04:49;;;;;;;;;;;16.70;45.40;;;;;;5010337;28;19925;-54
2023/01/23 02:07:20;;;;;;;;;;;16.60;45.30;;;;;;5039904;28;19928;-54
2023/01/23 02:09:46;;;;;;;;;;;16.60;45.30;;;;;;5010829;28;19953;-54
2023/01/23 02:12:11;;;;;;;;;;;16.60;45.40;;;;;;5010926;28;19952;-53
2023/01/23 02:14:37;;;;;;;;;;;16.70;45.20;;;;;;5008300;28;19920;-54
2023/01/23 02:17:02;;;;;;;;;;;16.70;44.90;;;;;;4993290;28;19918;-54
2023/01/23 02:19:47;;;;;;;;;;;16.80;44.70;;;;;;5009970;28;19917;-53
2023/01/23 02:22:18;;;;;;;;;;;17.00;45.10;;;;;;5001380;28;19913;-54
2023/01/23 02:24:47;;;;;;;;;;;17.20;44.60;;;;;;4998100;28;20398;-53
2023/01/23 02:27:12;;;;;;;;;;;17.50;44.10;;;;;;5010055;28;19949;-54
2023/01/23 02:29:39;;;;;;;;;;;17.80;43.60;;;;;;5008118;28;19917;-54
2023/01/23 02:32:04;;;;;;;;;;;18.10;43.70;;;;;;5005586;28;20467;-54
2023/01/23 02:34:30;;;;;;;;;;;18.40;42.60;;;;;;5008648;28;19913;-54
2023/01/23 02:36:55;;;;;;;;;;;18.60;42.10;;;;;;5015407;28;19913;-54
2023/01/23 02:39:21;;;;;;;;;;;18.60;42.00;;;;;;5016091;28;19918;-53
2023/01/23 02:41:49;;;;;;;;;;;18.50;42.20;;;;;;5011820;28;19914;-54
2023/01/23 02:44:15;;;;;;;;;;;18.40;42.50;;;;;;5007812;28;19992;-53
2023/01/23 02:46:41;;;;;;;;;;;18.30;42.60;;;;;;4997180;28;19918;-54
2023/01/23 02:49:07;;;;;;;;;;;18.30;42.80;;;;;;5009101;28;19920;-54
2023/01/23 02:51:32;;;;;;;;;;;18.20;42.80;;;;;;5012518;28;19914;-53
2023/01/23 02:53:58;;;;;;;;;;;18.20;42.70;;;;;;5005389;28;19914;-54
2023/01/23 02:56:23;;;;;;;;;;;18.20;42.50;;;;;;5011519;28;20023;-54
2023/01/23 03:01:34;;;;;;;;;;;18.10;42.80;;;;;;5010230;28;19921;-54
2023/01/23 03:04:03;;;;;;;;;;;18.00;42.70;;;;;;5007802;28;19988;-53
2023/01/23 03:06:29;;;;;;;;;;;18.00;42.70;;;;;;5006176;28;20036;-54
2023/01/23 03:08:56;;;;;;;;;;;18.00;42.70;;;;;;5004955;28;19980;-54
2023/01/23 03:11:22;;;;;;;;;;;18.00;42.70;;;;;;5010054;28;19922;-54
2023/01/23 03:13:47;;;;;;;;;;;18.00;42.70;;;;;;5000872;28;20377;-53
2023/01/23 03:16:13;;;;;;;;;;;17.90;42.80;;;;;;4994259;28;19913;-54
2023/01/23 03:18:38;;;;;;;;;;;17.80;42.90;;;;;;5008826;28;19960;-53
2023/01/23 03:21:04;;;;;;;;;;;17.90;43.00;;;;;;4997729;28;19917;-53
2023/01/23 03:23:30;;;;;;;;;;;17.80;42.90;;;;;;5000670;28;20016;-54
2023/01/23 03:25:57;;;;;;;;;;;17.80;42.90;;;;;;5006883;28;19922;-54
2023/01/23 03:31:07;;;;;;;;;;;17.80;43.10;;;;;;5008935;28;20388;-53
2023/01/23 03:33:33;;;;;;;;;;;17.80;43.20;;;;;;5008812;28;19913;-54
2023/01/23 03:35:59;;;;;;;;;;;17.70;42.90;;;;;;5011397;28;19936;-54
2023/01/23 03:38:25;;;;;;;;;;;17.70;42.90;;;;;;5003705;28;19921;-54
2023/01/23 03:43:35;;;;;;;;;;;17.70;42.90;;;;;;5011447;28;19971;-54
2023/01/23 03:46:00;;;;;;;;;;;17.70;43.00;;;;;;5009368;28;19918;-54
2023/01/23 03:48:26;;;;;;;;;;;17.70;43.10;;;;;;5010587;28;20013;-53
2023/01/23 03:50:51;;;;;;;;;;;17.60;43.10;;;;;;5012017;28;19920;-53
2023/01/23 03:53:17;;;;;;;;;;;17.60;43.20;;;;;;5009656;28;19940;-53
2023/01/23 03:55:45;;;;;;;;;;;17.60;43.20;;;;;;4995300;28;20366;-54
2023/01/23 03:58:11;;;;;;;;;;;17.60;43.10;;;;;;5003394;28;19921;-54
2023/01/23 04:00:36;;;;;;;;;;;17.60;43.20;;;;;;5011126;28;19913;-54
2023/01/23 04:03:01;;;;;;;;;;;17.60;43.20;;;;;;5009768;28;19913;-54
2023/01/23 04:05:27;;;;;;;;;;;17.60;43.20;;;;;;5009945;28;19919;-54
2023/01/23 04:07:52;;;;;;;;;;;17.60;43.40;;;;;;5004518;28;19957;-54
2023/01/23 04:10:18;;;;;;;;;;;17.60;43.40;;;;;;5012195;28;19913;-54
2023/01/23 04:12:43;;;;;;;;;;;17.60;43.30;;;;;;4998422;28;20376;-54
2023/01/23 04:15:09;;;;;;;;;;;17.60;43.10;;;;;;5009534;28;20746;-54
2023/01/23 04:17:34;;;;;;;;;;;17.60;43.10;;;;;;5016420;28;19922;-54
2023/01/23 04:20:00;;;;;;;;;;;17.60;43.10;;;;;;5009019;28;19961;-54
2023/01/23 04:22:25;;;;;;;;;;;17.60;43.10;;;;;;5005439;28;20043;-54
2023/01/23 04:24:51;;;;;;;;;;;17.60;43.00;;;;;;5011847;28;19921;-54
2023/01/23 04:27:16;;;;;;;;;;;17.60;43.10;;;;;;5008654;28;19917;-54
2023/01/23 04:29:42;;;;;;;;;;;17.60;43.10;;;;;;5013253;28;19913;-54
2023/01/23 04:32:08;;;;;;;;;;;17.60;43.10;;;;;;5007079;28;19914;-54
2023/01/23 04:34:34;;;;;;;;;;;17.50;43.20;;;;;;4996416;28;19968;-54
2023/01/23 04:36:59;;;;;;;;;;;17.50;43.30;;;;;;5012925;28;20429;-54
2023/01/23 04:39:25;;;;;;;;;;;17.50;43.30;;;;;;5010789;28;19928;-54
2023/01/23 04:41:50;;;;;;;;;;;17.50;43.30;;;;;;5010009;28;20278;-54
2023/01/23 04:44:18;;;;;;;;;;;17.50;43.30;;;;;;5010392;28;19928;-54
2023/01/23 04:46:45;;;;;;;;;;;17.50;43.50;;;;;;5012574;28;19921;-54
2023/01/23 04:49:10;;;;;;;;;;;17.40;43.40;;;;;;5009116;28;20385;-54
2023/01/23 04:51:36;;;;;;;;;;;17.50;43.40;;;;;;5007773;28;19921;-54
2023/01/23 04:54:01;;;;;;;;;;;17.40;43.40;;;;;;5009056;28;19913;-54
2023/01/23 04:56:26;;;;;;;;;;;17.50;43.60;;;;;;5011437;28;19920;-54
2023/01/23 04:58:52;;;;;;;;;;;17.50;43.40;;;;;;5010096;28;19920;-54
2023/01/23 05:01:21;;;;;;;;;;;17.50;43.30;;;;;;5012735;28;19913;-54
2023/01/23 05:03:48;;;;;;;;;;;17.50;43.30;;;;;;5009933;28;19960;-54
2023/01/23 05:06:13;;;;;;;;;;;17.50;43.30;;;;;;5024012;28;19918;-53
2023/01/23 05:08:39;;;;;;;;;;;17.50;43.20;;;;;;4996618;28;19918;-54
2023/01/23 05:11:04;;;;;;;;;;;17.60;43.20;;;;;;5011332;28;19917;-54
2023/01/23 05:13:29;;;;;;;;;;;17.50;43.10;;;;;;5006562;28;19925;-53
2023/01/23 05:15:55;;;;;;;;;;;17.60;43.30;;;;;;5006020;28;19963;-53
2023/01/23 05:18:21;;;;;;;;;;;17.60;43.20;;;;;;5012547;28;20374;-54
2023/01/23 05:20:46;;;;;;;;;;;17.60;43.20;;;;;;5017712;28;19913;-54
2023/01/23 05:23:12;;;;;;;;;;;17.60;43.20;;;;;;5010504;28;19921;-54
2023/01/23 05:25:37;;;;;;;;;;;17.50;43.20;;;;;;5006518;28;19917;-53
2023/01/23 05:28:03;;;;;;;;;;;17.50;43.00;;;;;;5013226;28;20020;-54
2023/01/23 05:30:28;;;;;;;;;;;17.60;43.20;;;;;;5012444;28;19921;-54
2023/01/23 05:32:54;;;;;;;;;;;17.50;43.10;;;;;;5012389;28;19948;-53
2023/01/23 05:35:19;;;;;;;;;;;17.50;43.10;;;;;;5008176;28;19997;-54
2023/01/23 05:37:49;;;;;;;;;;;17.50;43.10;;;;;;4995350;28;20208;-54
2023/01/23 05:40:14;;;;;;;;;;;17.50;43.20;;;;;;5004887;28;20288;-54
2023/01/23 05:42:40;;;;;;;;;;;17.50;43.20;;;;;;5009451;28;20008;-54
2023/01/23 05:45:05;;;;;;;;;;;17.40;43.30;;;;;;5013981;28;20000;-54
2023/01/23 05:47:31;;;;;;;;;;;17.40;43.40;;;;;;5008322;28;19917;-54
2023/01/23 05:49:56;;;;;;;;;;;17.40;43.50;;;;;;5008541;28;19921;-54
2023/01/23 05:52:22;;;;;;;;;;;17.40;43.50;;;;;;5010455;28;20437;-54
2023/01/23 05:54:47;;;;;;;;;;;17.40;43.50;;;;;;5008113;28;19967;-54
2023/01/23 05:57:13;;;;;;;;;;;17.40;43.50;;;;;;5010221;28;20000;-54
2023/01/23 05:59:38;;;;;;;;;;;17.40;43.60;;;;;;5012651;28;19913;-53
2023/01/23 06:02:04;;;;;;;;;;;17.40;43.50;;;;;;5011079;28;20032;-54
2023/01/23 06:04:29;;;;;;;;;;;17.40;43.60;;;;;;5007517;28;20461;-53
2023/01/23 06:06:55;;;;;;;;;;;17.30;43.40;;;;;;5010416;28;20143;-54
2023/01/23 06:09:20;;;;;;;;;;;17.40;43.50;;;;;;5003278;28;19917;-54
2023/01/23 06:11:45;;;;;;;;;;;17.30;43.50;;;;;;5008522;28;20048;-54
2023/01/23 06:14:11;;;;;;;;;;;17.30;43.50;;;;;;5007155;28;19914;-54
2023/01/23 06:16:36;;;;;;;;;;;17.30;43.60;;;;;;5010350;28;21842;-54
2023/01/23 06:19:02;;;;;;;;;;;17.40;43.50;;;;;;5012556;28;19913;-53
2023/01/23 06:21:27;;;;;;;;;;;17.30;43.40;;;;;;5006942;28;19929;-53
2023/01/23 06:23:53;;;;;;;;;;;17.30;43.50;;;;;;5001685;28;19929;-53
2023/01/23 06:26:18;;;;;;;;;;;17.30;43.40;;;;;;5007637;28;20012;-54
2023/01/23 06:28:43;;;;;;;;;;;17.30;43.50;;;;;;4999127;28;20377;-54
2023/01/23 06:31:09;;;;;;;;;;;17.30;44.10;;;;;;5005158;28;20377;-54
2023/01/23 06:33:35;;;;;;;;;;;17.30;43.40;;;;;;5010585;28;20389;-54
2023/01/23 06:36:01;;;;;;;;;;;17.30;43.40;;;;;;5009041;28;20281;-54
2023/01/23 06:38:26;;;;;;;;;;;17.40;43.50;;;;;;5001316;28;19917;-54
2023/01/23 06:40:52;;;;;;;;;;;17.40;43.30;;;;;;5009199;28;19985;-54
2023/01/23 06:43:18;;;;;;;;;;;17.40;43.40;;;;;;4997507;28;20409;-54
2023/01/23 06:45:44;;;;;;;;;;;17.40;43.30;;;;;;5017314;28;19970;-54
2023/01/23 06:48:09;;;;;;;;;;;17.40;43.30;;;;;;5004408;28;20380;-54
2023/01/23 06:50:35;;;;;;;;;;;17.40;43.30;;;;;;5011772;28;19951;-54
2023/01/23 06:53:00;;;;;;;;;;;17.40;43.30;;;;;;5044376;28;19916;-54
2023/01/23 06:55:25;;;;;;;;;;;17.40;43.30;;;;;;4992871;28;20016;-54
2023/01/23 06:57:51;;;;;;;;;;;17.40;43.30;;;;;;5003292;28;20314;-54
2023/01/23 07:00:17;;;;;;;;;;;17.40;43.20;;;;;;5013977;28;20397;-54
2023/01/23 07:02:42;;;;;;;;;;;17.50;43.30;;;;;;4995517;28;20289;-53
2023/01/23 07:05:08;;;;;;;;;;;17.50;43.30;;;;;;5007439;28;19920;-54
2023/01/23 07:07:33;;;;;;;;;;;17.40;43.30;;;;;;4995213;28;20282;-54
2023/01/23 07:09:59;;;;;;;;;;;17.40;43.30;;;;;;5009182;28;19914;-53
2023/01/23 07:12:24;;;;;;;;;;;17.40;43.50;;;;;;5010741;28;20397;-52
2023/01/23 07:14:50;;;;;;;;;;;17.40;43.40;;;;;;5006370;28;20340;-54
2023/01/23 07:17:15;;;;;;;;;;;17.40;43.50;;;;;;5008172;28;19925;-54
2023/01/23 07:19:40;;;;;;;;;;;17.40;43.60;;;;;;4997172;28;19913;-54
2023/01/23 07:22:06;;;;;;;;;;;17.40;43.60;;;;;;5003490;28;20004;-54
2023/01/23 07:24:31;;;;;;;;;;;17.40;43.70;;;;;;5001820;28;19922;-54
2023/01/23 07:26:57;;;;;;;;;;;17.30;43.70;;;;;;5010599;28;19921;-54
2023/01/23 07:29:22;;;;;;;;;;;17.30;43.70;;;;;;5003124;28;19917;-54
2023/01/23 07:31:48;;;;;;;;;;;17.30;43.80;;;;;;5011474;28;20362;-54
2023/01/23 07:34:14;;;;;;;;;;;17.30;43.70;;;;;;5010319;28;19917;-54
2023/01/23 07:36:39;;;;;;;;;;;17.30;43.70;;;;;;4999425;28;19918;-54
2023/01/23 07:39:05;;;;;;;;;;;17.40;43.80;;;;;;5001138;28;19964;-54
2023/01/23 07:41:30;;;;;;;;;;;17.30;43.80;;;;;;5002307;28;19968;-54
2023/01/23 07:43:56;;;;;;;;;;;17.30;43.80;;;;;;5010852;28;19913;-54
2023/01/23 07:46:24;;;;;;;;;;;17.30;43.70;;;;;;5009587;28;19921;-54
2023/01/23 07:48:50;;;;;;;;;;;17.30;43.80;;;;;;4999496;28;19995;-53
2023/01/23 07:51:15;;;;;;;;;;;17.30;43.80;;;;;;5015915;28;20324;-54
2023/01/23 07:53:40;;;;;;;;;;;17.30;43.70;;;;;;5003987;28;19960;-54
2023/01/23 07:56:06;;;;;;;;;;;17.40;43.90;;;;;;5006813;28;20389;-54
2023/01/23 07:58:32;;;;;;;;;;;17.30;43.90;;;;;;5036224;28;19920;-53
2023/01/23 08:00:57;;;;;;;;;;;17.30;44.00;;;;;;5005157;28;20219;-54
2023/01/23 08:03:22;;;;;;;;;;;17.30;44.60;;;;;;5011259;28;20051;-53
2023/01/23 08:05:48;;;;;;;;;;;17.40;44.00;;;;;;4996902;28;19920;-53
2023/01/23 08:08:14;;;;;;;;;;;17.40;43.90;;;;;;5028607;28;19933;-54
2023/01/23 08:10:39;;;;;;;;;;;17.40;43.90;;;;;;5004292;28;19918;-54
2023/01/23 08:13:05;;;;;;;;;;;17.40;43.90;;;;;;5003995;28;20012;-54
2023/01/23 08:15:30;;;;;;;;;;;17.40;44.10;;;;;;5004631;28;20269;-53
2023/01/23 08:17:55;;;;;;;;;;;17.40;44.20;;;;;;5005406;28;19943;-54
2023/01/23 08:20:22;;;;;;;;;;;17.70;44.30;;;;;;4996571;28;19914;-54
2023/01/23 08:22:47;;;;;;;;;;;18.60;42.60;;;;;;5003625;28;19922;-54
2023/01/23 08:25:12;;;;;;;;;;;19.70;41.10;;;;;;5005845;28;19922;-54
2023/01/23 08:27:38;;;;;;;;;;;20.50;39.50;;;;;;5001206;28;19957;-54
2023/01/23 08:30:04;;;;;;;;;;;21.10;38.50;;;;;;5008640;28;19925;-54
2023/01/23 08:32:29;;;;;;;;;;;21.60;37.60;;;;;;5005272;28;19917;-54
2023/01/23 08:34:55;;;;;;;;;;;21.90;37.00;;;;;;5005566;28;20163;-54
2023/01/23 08:37:20;;;;;;;;;;;22.20;36.40;;;;;;5004715;28;19921;-54
2023/01/23 08:39:46;;;;;;;;;;;22.40;36.30;;;;;;5012337;28;19921;-54
2023/01/23 08:42:11;;;;;;;;;;;22.40;36.10;;;;;;5005015;28;19913;-55
2023/01/23 08:44:37;;;;;;;;;;;22.50;36.10;;;;;;5003323;28;19968;-55
2023/01/23 08:47:02;;;;;;;;;;;22.60;36.10;;;;;;5010499;28;19964;-55
2023/01/23 08:49:28;;;;;;;;;;;22.60;35.90;;;;;;5011056;28;20008;-54
2023/01/23 08:51:53;;;;;;;;;;;22.70;35.80;;;;;;5005682;28;19921;-55
2023/01/23 08:54:19;;;;;;;;;;;22.70;35.70;;;;;;4999588;28;20017;-54
2023/01/23 08:56:44;;;;;;;;;;;22.80;35.80;;;;;;5011772;28;19964;-53
2023/01/23 08:59:09;;;;;;;;;;;22.90;35.90;;;;;;5004022;28;20005;-54
2023/01/23 09:01:35;;;;;;;;;;;22.90;35.80;;;;;;5005651;28;20169;-52
2023/01/23 09:04:00;;;;;;;;;;;22.90;35.80;;;;;;5010659;28;19914;-54
2023/01/23 09:06:26;;;;;;;;;;;23.10;35.80;;;;;;5011998;28;20016;-52
2023/01/23 09:08:51;;;;;;;;;;;23.10;35.80;;;;;;5012356;28;19921;-52
2023/01/23 09:11:17;;;;;;;;;;;23.10;35.70;;;;;;5002735;28;19976;-53
2023/01/23 09:13:43;;;;;;;;;;;23.00;35.80;;;;;;5000270;28;20343;-52
2023/01/23 09:16:09;;;;;;;;;;;23.10;35.80;;;;;;5003856;28;19917;-53
2023/01/23 09:18:34;;;;;;;;;;;23.10;35.60;;;;;;5005821;28;19925;-52
2023/01/23 09:21:03;;;;;;;;;;;23.10;35.60;;;;;;4996893;28;20401;-53
2023/01/23 09:23:29;;;;;;;;;;;23.20;35.50;;;;;;5010131;28;20424;-52
2023/01/23 09:25:54;;;;;;;;;;;23.20;35.40;;;;;;5013438;28;19918;-53
2023/01/23 09:28:20;;;;;;;;;;;23.20;35.50;;;;;;5011383;28;19921;-53
2023/01/23 09:30:45;;;;;;;;;;;23.20;35.40;;;;;;5013243;28;19925;-53
2023/01/23 09:33:11;;;;;;;;;;;23.30;35.50;;;;;;4998251;28;19910;-53
2023/01/23 09:35:36;;;;;;;;;;;23.40;35.40;;;;;;5001407;28;19955;-53
2023/01/23 09:38:05;;;;;;;;;;;23.40;35.30;;;;;;5001905;28;19910;-53
2023/01/23 09:40:34;;;;;;;;;;;23.40;35.30;;;;;;5004115;28;19920;-54
2023/01/23 09:43:12;;;;;;;;;;;23.40;35.30;;;;;;5037079;28;19925;-53
2023/01/23 09:45:38;;;;;;;;;;;23.50;35.30;;;;;;5007594;28;19967;-53
2023/01/23 09:48:03;;;;;;;;;;;23.50;35.30;;;;;;5006106;28;19913;-53
2023/01/23 09:50:30;;;;;;;;;;;23.50;35.30;;;;;;5001497;28;19925;-53
2023/01/23 09:52:59;;;;;;;;;;;23.50;35.30;;;;;;5032722;28;19925;-53
2023/01/23 09:55:47;;;;;;;;;;;23.50;35.30;;;;;;5044972;28;19924;-53
2023/01/23 09:58:32;;;;;;;;;;;23.50;35.30;;;;;;5011088;28;19914;-53
2023/01/23 10:00:58;;;;;;;;;;;23.50;35.30;;;;;;5004978;28;19909;-53
2023/01/23 10:03:24;;;;;;;;;;;23.60;35.30;;;;;;5012642;28;19967;-53
2023/01/23 10:06:02;;;;;;;;;;;23.60;35.30;;;;;;5011611;28;20382;-53
2023/01/23 10:08:30;;;;;;;;;;;23.70;35.30;;;;;;5007997;28;19975;-54
2023/01/23 10:10:59;;;;;;;;;;;23.70;35.30;;;;;;5008149;28;19918;-53
2023/01/23 10:13:31;;;;;;;;;;;23.70;35.20;;;;;;5012623;28;20294;-53
2023/01/23 10:16:00;;;;;;;;;;;23.70;35.30;;;;;;5040846;28;19953;-53
2023/01/23 10:18:28;;;;;;;;;;;23.70;35.10;;;;;;5030998;28;19949;-53
2023/01/23 10:20:54;;;;;;;;;;;23.70;35.10;;;;;;5009913;28;19913;-54
2023/01/23 10:23:22;;;;;;;;;;;23.80;35.20;;;;;;5006006;28;20000;-53
2023/01/23 10:25:48;;;;;;;;;;;23.80;35.10;;;;;;4993673;28;19993;-53
2023/01/23 10:28:21;;;;;;;;;;;23.80;35.20;;;;;;5025887;28;20382;-53
2023/01/23 10:30:50;;;;;;;;;;;23.80;35.20;;;;;;4993017;28;20325;-52
2023/01/23 10:33:16;;;;;;;;;;;23.80;35.20;;;;;;4998962;28;19921;-54
2023/01/23 10:35:46;;;;;;;;;;;23.80;35.20;;;;;;5002646;28;19965;-52
2023/01/23 10:38:14;;;;;;;;;;;23.80;35.10;;;;;;5012516;28;19920;-53
2023/01/23 10:43:24;;;;;;;;;;;23.80;35.10;;;;;;4998932;28;19920;-53
2023/01/23 10:45:50;;;;;;;;;;;23.90;35.30;;;;;;5030858;28;19925;-53
2023/01/23 10:48:31;;;;;;;;;;;23.80;35.20;;;;;;4995443;28;19926;-53
2023/01/23 10:50:57;;;;;;;;;;;23.90;35.20;;;;;;5024001;28;20004;-52
2023/01/23 10:53:24;;;;;;;;;;;24.00;35.30;;;;;;5008398;28;20004;-52
2023/01/23 10:55:49;;;;;;;;;;;23.90;35.10;;;;;;5010668;28;19924;-53
2023/01/23 10:58:31;;;;;;;;;;;23.90;35.20;;;;;;5005042;28;19917;-53
2023/01/23 11:00:57;;;;;;;;;;;24.00;35.20;;;;;;5007980;28;19913;-52
2023/01/23 11:03:22;;;;;;;;;;;24.00;35.10;;;;;;5005000;28;19969;-53
2023/01/23 11:05:52;;;;;;;;;;;24.00;35.20;;;;;;4993797;28;19921;-53
2023/01/23 11:08:21;;;;;;;;;;;24.00;35.10;;;;;;5007349;28;19977;-54
2023/01/23 11:10:46;;;;;;;;;;;24.00;35.00;;;;;;5007048;28;20309;-54
2023/01/23 11:13:20;;;;;;;;;;;24.10;35.00;;;;;;5004887;28;19910;-54
2023/01/23 11:15:45;;;;;;;;;;;24.10;35.00;;;;;;5025682;28;19914;-53
2023/01/23 11:18:22;;;;;;;;;;;24.00;35.00;;;;;;5038029;28;20292;-53
2023/01/23 11:20:53;;;;;;;;;;;24.00;35.10;;;;;;5042598;28;19963;-53
2023/01/23 11:23:19;;;;;;;;;;;24.00;35.20;;;;;;5013324;28;20000;-54
2023/01/23 11:25:48;;;;;;;;;;;24.00;35.20;;;;;;5014318;28;20045;-53
2023/01/23 11:28:22;;;;;;;;;;;24.10;35.20;;;;;;5004333;28;19924;-54
2023/01/23 11:30:57;;;;;;;;;;;24.10;35.10;;;;;;5001075;28;19914;-53
2023/01/23 11:33:40;;;;;;;;;;;24.10;35.10;;;;;;5036780;28;20031;-53
2023/01/23 11:36:17;;;;;;;;;;;24.00;35.10;;;;;;4998038;28;19914;-53
2023/01/23 11:38:46;;;;;;;;;;;24.10;35.20;;;;;;5002566;28;19943;-53
2023/01/23 11:41:12;;;;;;;;;;;24.10;35.20;;;;;;5010353;28;20370;-53
2023/01/23 11:43:38;;;;;;;;;;;24.10;35.00;;;;;;5015644;28;19909;-54
2023/01/23 11:46:26;;;;;;;;;;;24.20;35.10;;;;;;5005412;28;20000;-53
2023/01/23 11:48:51;;;;;;;;;;;24.20;35.20;;;;;;5029095;28;19944;-53
2023/01/23 11:51:22;;;;;;;;;;;24.20;35.20;;;;;;5000094;28;19914;-54
2023/01/23 11:54:07;;;;;;;;;;;24.20;35.20;;;;;;5043090;28;19914;-52
2023/01/23 11:56:38;;;;;;;;;;;24.20;35.20;;;;;;5008329;28;19914;-54
2023/01/23 11:59:19;;;;;;;;;;;24.30;35.20;;;;;;4998744;28;19957;-52
2023/01/23 12:01:53;;;;;;;;;;;24.30;35.30;;;;;;5032631;28;19917;-54
2023/01/23 12:04:18;;;;;;;;;;;24.30;35.10;;;;;;5043305;28;20400;-53
2023/01/23 12:07:02;;;;;;;;;;;24.30;35.30;;;;;;5012275;28;20246;-53
2023/01/23 12:09:47;;;;;;;;;;;24.30;35.30;;;;;;5011479;28;19914;-54
2023/01/23 12:12:16;;;;;;;;;;;24.30;35.20;;;;;;5014004;28;19959;-52
2023/01/23 12:14:45;;;;;;;;;;;24.30;35.80;;;;;;5014513;28;19913;-53
2023/01/23 12:17:26;;;;;;;;;;;24.30;35.00;;;;;;5045571;28;19956;-52
2023/01/23 12:20:00;;;;;;;;;;;24.30;35.10;;;;;;5014910;28;19910;-53
2023/01/23 12:22:44;;;;;;;;;;;24.30;35.10;;;;;;5014983;28;20055;-53
2023/01/23 12:25:26;;;;;;;;;;;24.30;35.10;;;;;;5003173;28;20075;-53
2023/01/23 12:27:58;;;;;;;;;;;24.30;35.10;;;;;;5039231;28;19914;-53
2023/01/23 12:30:27;;;;;;;;;;;24.30;35.00;;;;;;5015439;28;19917;-55
2023/01/23 12:33:15;;;;;;;;;;;24.40;35.10;;;;;;5015157;28;20366;-55
2023/01/23 12:35:45;;;;;;;;;;;24.40;35.00;;;;;;5009184;28;19914;-53
2023/01/23 12:38:13;;;;;;;;;;;24.40;35.00;;;;;;5013525;28;19909;-53
2023/01/23 12:40:49;;;;;;;;;;;24.50;35.00;;;;;;4995139;28;19979;-52
2023/01/23 12:43:18;;;;;;;;;;;24.50;35.00;;;;;;5037758;28;19913;-53
2023/01/23 12:45:51;;;;;;;;;;;24.40;35.00;;;;;;5014957;28;20023;-52
2023/01/23 12:48:27;;;;;;;;;;;24.50;35.00;;;;;;5045926;28;19928;-53
2023/01/23 12:50:56;;;;;;;;;;;24.50;35.00;;;;;;5026347;28;19914;-53
2023/01/23 12:53:22;;;;;;;;;;;24.50;35.00;;;;;;5026587;28;19914;-53
2023/01/23 12:56:03;;;;;;;;;;;24.50;35.00;;;;;;5008062;28;19992;-53
2023/01/23 12:58:29;;;;;;;;;;;24.50;35.00;;;;;;5012998;28;20351;-52
2023/01/23 13:01:00;;;;;;;;;;;24.50;35.00;;;;;;5013569;28;20021;-54
2023/01/23 13:03:29;;;;;;;;;;;24.50;35.00;;;;;;5043807;28;19929;-54
2023/01/23 13:06:14;;;;;;;;;;;24.50;35.00;;;;;;5006569;28;19913;-53
2023/01/23 13:09:06;;;;;;;;;;;24.50;34.90;;;;;;5014229;28;19917;-52
2023/01/23 13:11:41;;;;;;;;;;;24.50;35.00;;;;;;5009755;28;19945;-53
2023/01/23 13:14:22;;;;;;;;;;;24.50;34.90;;;;;;5011026;28;20139;-52
2023/01/23 13:16:49;;;;;;;;;;;24.50;34.90;;;;;;5009251;28;19910;-53
2023/01/23 13:22:12;;;;;;;;;;;24.50;35.00;;;;;;5013992;28;19920;-53
2023/01/23 13:27:34;;;;;;;;;;;24.50;35.00;;;;;;5011416;28;19925;-53
2023/01/23 13:30:01;;;;;;;;;;;24.50;35.00;;;;;;5013526;28;19910;-53
2023/01/23 13:32:29;;;;;;;;;;;24.60;35.00;;;;;;5009831;28;20318;-53
2023/01/23 13:34:54;;;;;;;;;;;24.50;35.00;;;;;;5009034;28;19920;-53
2023/01/23 13:37:29;;;;;;;;;;;24.60;34.90;;;;;;5015691;28;20294;-53
2023/01/23 13:40:02;;;;;;;;;;;24.60;34.90;;;;;;5013071;28;20020;-53
2023/01/23 13:42:27;;;;;;;;;;;24.60;35.00;;;;;;5013108;28;19918;-53
2023/01/23 13:45:11;;;;;;;;;;;24.60;34.90;;;;;;5013603;28;20314;-53
2023/01/23 13:50:28;;;;;;;;;;;24.70;34.90;;;;;;5004743;28;19941;-53
2023/01/23 13:58:27;;;;;;;;;;;24.70;34.80;;;;;;5013449;28;19925;-53
2023/01/23 14:06:32;;;;;;;;;;;24.30;35.50;;;;;;5006317;28;19925;-52
2023/01/23 14:08:57;;;;;;;;;;;23.90;35.90;;;;;;4993855;28;20340;-53
2023/01/23 14:11:23;;;;;;;;;;;23.50;36.40;;;;;;5022532;28;19917;-53
2023/01/23 14:13:49;;;;;;;;;;;23.20;37.00;;;;;;5011893;28;20420;-53
2023/01/23 14:16:21;;;;;;;;;;;22.80;37.50;;;;;;5012451;28;19913;-52
2023/01/23 14:18:48;;;;;;;;;;;22.50;38.00;;;;;;5041078;28;19918;-53
2023/01/23 14:21:13;;;;;;;;;;;22.20;38.60;;;;;;5044409;28;19910;-54
2023/01/23 14:23:39;;;;;;;;;;;22.10;38.90;;;;;;5004785;28;19922;-53
2023/01/23 14:26:05;;;;;;;;;;;21.90;39.10;;;;;;5026341;28;19920;-53
2023/01/23 14:28:30;;;;;;;;;;;21.80;39.10;;;;;;5059909;28;20343;-54
2023/01/23 14:30:57;;;;;;;;;;;21.70;39.10;;;;;;5009396;28;19941;-52
2023/01/23 14:33:22;;;;;;;;;;;21.60;39.20;;;;;;4998571;28;19945;-53
2023/01/23 14:35:48;;;;;;;;;;;21.60;39.40;;;;;;5009798;28;19995;-52
2023/01/23 14:38:23;;;;;;;;;;;21.40;39.60;;;;;;5010825;28;19976;-52
2023/01/23 14:40:48;;;;;;;;;;;21.30;40.00;;;;;;5034458;28;19940;-53
2023/01/23 14:43:18;;;;;;;;;;;21.20;40.20;;;;;;5000110;28;19914;-53
2023/01/23 14:45:48;;;;;;;;;;;21.10;40.50;;;;;;5014004;28;19928;-53
2023/01/23 14:48:14;;;;;;;;;;;21.30;40.60;;;;;;5007722;28;19923;-54